Time;durP1;ratioP1;P1;durP2;ratioP2;P2;SDS_P1;SDS_P2;PMS_P1;PMS_P2;Temp;Humidity;BMP_temperature;BMP_pressure;BME280_temperature;BME280_humidity;BME280_pressure;Samples;Min_cycle;Max_cycle;Signal;HPM_P1;HPM_P2
2023/01/07 00:01:10;;;;;;;26.98;16.38;;;;;;;3.85;69.90;100890.66;5091461;28;20038;-28
2023/01/07 00:03:36;;;;;;;31.17;16.90;;;;;;;3.63;70.08;100873.53;5073260;28;20100;-26
2023/01/07 00:06:04;;;;;;;22.15;12.85;;;;;;;3.71;69.70;100867.47;5091361;28;20020;-26
2023/01/07 00:08:31;;;;;;;25.08;13.00;;;;;;;3.77;69.87;100890.59;5072894;28;20549;-26
2023/01/07 00:11:00;;;;;;;21.02;11.32;;;;;;;3.63;69.78;100889.34;5072470;28;20024;-28
2023/01/07 00:13:26;;;;;;;31.65;16.02;;;;;;;3.07;72.01;100904.53;5090238;28;20158;-27
2023/01/07 00:16:00;;;;;;;21.77;11.50;;;;;;;3.40;71.14;100873.19;5090271;28;20053;-28
2023/01/07 00:18:26;;;;;;;22.67;10.80;;;;;;;3.56;70.80;100907.59;5090733;28;20118;-27
2023/01/07 00:20:51;;;;;;;20.30;10.75;;;;;;;3.34;71.18;100884.34;5090195;28;20028;-27
2023/01/07 00:23:17;;;;;;;19.90;10.40;;;;;;;3.13;71.38;100898.66;5090606;28;20048;-26
2023/01/07 00:25:42;;;;;;;20.50;9.90;;;;;;;2.79;71.65;100874.75;5090890;28;20039;-27
2023/01/07 00:28:08;;;;;;;21.45;12.10;;;;;;;2.83;71.11;100901.63;5090647;28;20610;-28
2023/01/07 00:30:33;;;;;;;27.52;13.75;;;;;;;1.95;72.47;100909.88;5090478;28;20020;-30
2023/01/07 00:33:03;;;;;;;15.85;8.95;;;;;;;1.54;72.98;100919.75;5072690;28;20031;-27
2023/01/07 00:35:35;;;;;;;17.17;9.50;;;;;;;1.63;73.27;100902.31;5072410;28;20063;-27
2023/01/07 00:38:02;;;;;;;14.38;8.88;;;;;;;1.95;72.83;100918.59;5090659;28;20036;-26
2023/01/07 00:40:30;;;;;;;18.38;9.75;;;;;;;1.66;73.94;100926.53;5072124;28;20024;-27
2023/01/07 00:43:03;;;;;;;15.82;8.10;;;;;;;1.73;74.34;100922.34;5090740;28;20039;-27
2023/01/07 00:45:31;;;;;;;14.60;7.90;;;;;;;2.07;73.13;100905.28;5072005;28;20064;-26
2023/01/07 00:47:57;;;;;;;15.95;9.13;;;;;;;2.14;73.79;100916.88;5090692;28;20036;-26
2023/01/07 00:50:28;;;;;;;14.93;8.68;;;;;;;2.42;73.97;100900.16;5090145;28;20518;-25
2023/01/07 00:52:54;;;;;;;16.35;9.20;;;;;;;2.63;73.19;100921.97;5090417;28;20173;-28
2023/01/07 00:55:20;;;;;;;18.73;9.65;;;;;;;2.55;72.57;100898.97;5089969;28;20016;-29
2023/01/07 00:57:45;;;;;;;24.23;13.40;;;;;;;2.94;71.79;100925.13;5090563;28;20035;-29
2023/01/07 01:00:13;;;;;;;28.42;14.95;;;;;;;2.71;72.67;100922.06;5090299;28;20028;-25
2023/01/07 01:02:39;;;;;;;49.17;23.27;;;;;;;2.30;73.38;100908.38;5090259;28;20028;-30
2023/01/07 01:05:05;;;;;;;41.17;19.38;;;;;;;2.64;73.86;100932.34;5090414;28;20502;-27
2023/01/07 01:07:35;;;;;;;35.22;18.67;;;;;;;2.67;72.57;100924.16;5071764;28;20032;-26
2023/01/07 01:10:01;;;;;;;32.70;15.95;;;;;;;2.76;72.15;100918.00;5089529;28;20028;-26
2023/01/07 01:12:27;;;;;;;36.33;16.25;;;;;;;2.78;72.42;100915.25;5089945;28;20028;-26
2023/01/07 01:14:53;;;;;;;26.88;13.43;;;;;;;2.87;72.28;100918.78;5071750;28;20024;-26
2023/01/07 01:17:19;;;;;;;25.23;12.95;;;;;;;2.90;71.78;100913.22;5089772;28;20056;-28
2023/01/07 01:19:45;;;;;;;22.63;12.32;;;;;;;2.88;72.13;100899.34;5071685;28;20098;-26
2023/01/07 01:22:10;;;;;;;26.35;13.48;;;;;;;2.68;71.78;100914.47;5089388;28;20495;-26
2023/01/07 01:24:36;;;;;;;24.95;14.65;;;;;;;2.34;73.67;100907.94;5089753;28;20046;-27
2023/01/07 01:27:01;;;;;;;28.50;17.08;;;;;;;2.72;72.53;100905.28;5089677;28;20097;-26
2023/01/07 01:29:27;;;;;;;30.63;15.48;;;;;;;2.74;71.53;100917.34;5090123;28;20039;-26
2023/01/07 01:31:52;;;;;;;29.40;13.98;;;;;;;2.63;72.24;100916.69;5089285;28;20110;-26
2023/01/07 01:34:18;;;;;;;26.70;14.60;;;;;;;2.10;74.47;100900.53;5089147;28;20059;-27
2023/01/07 01:36:43;;;;;;;24.60;14.35;;;;;;;1.95;74.61;100897.53;5089522;28;20040;-25
2023/01/07 01:39:09;;;;;;;33.13;16.67;;;;;;;1.66;75.90;100889.72;5089367;28;20024;-26
2023/01/07 01:41:35;;;;;;;55.42;21.80;;;;;;;2.09;74.99;100916.50;5089615;28;20032;-26
2023/01/07 01:44:00;;;;;;;52.90;21.30;;;;;;;2.31;73.26;100908.25;5089823;28;20043;-26
2023/01/07 01:46:36;;;;;;;41.25;18.52;;;;;;;2.53;72.54;100903.56;5089359;28;20169;-26
2023/01/07 01:49:21;;;;;;;29.83;14.13;;;;;;;2.61;72.92;100903.66;5089784;28;20024;-25
2023/01/07 01:51:52;;;;;;;30.25;14.77;;;;;;;2.08;73.81;100923.53;5089221;28;20598;-26
2023/01/07 01:54:19;;;;;;;38.28;18.00;;;;;;;1.65;75.98;100924.03;5089044;28;20028;-26
2023/01/07 01:56:48;;;;;;;44.45;17.85;;;;;;;1.76;75.58;100908.94;5089399;28;20408;-26
2023/01/07 01:59:16;;;;;;;;;;;;;;;1.75;75.04;100923.03;5089604;28;20100;-26
2023/01/07 02:01:41;;;;;;;38.10;15.77;;;;;;;2.00;74.94;100905.84;5089355;28;20394;-27
2023/01/07 02:04:12;;;;;;;33.17;15.48;;;;;;;1.92;74.99;100918.03;5070679;28;20024;-26
2023/01/07 02:06:45;;;;;;;39.53;16.85;;;;;;;1.60;75.20;100920.00;5089612;28;20036;-29
2023/01/07 02:09:12;;;;;;;29.67;14.15;;;;;;;0.97;75.70;100890.66;5086037;28;20028;-30
2023/01/07 02:11:50;;;;;;;27.00;13.07;;;;;;;1.49;73.91;100917.53;5077471;28;20024;-29
2023/01/07 02:14:47;;;;;;;36.63;16.98;;;;;;;1.54;73.24;100894.28;5078805;28;20583;-28
2023/01/07 02:17:30;;;;;;;30.92;16.60;;;;;;;1.41;74.85;100914.78;5077697;28;20039;-30
2023/01/07 02:20:22;;;;;;;26.45;14.25;;;;;;;1.41;75.54;100880.63;5078906;28;20512;-25
2023/01/07 02:23:18;;;;;;;26.92;13.10;;;;;;;1.66;74.73;100923.06;5063238;28;20052;-28
2023/01/07 02:25:54;;;;;;;27.52;13.20;;;;;;;1.41;74.95;100914.78;5076292;28;20078;-26
2023/01/07 02:28:43;;;;;;;27.05;12.90;;;;;;;1.24;76.28;100933.84;5068386;28;20032;-26
2023/01/07 02:31:14;;;;;;;;;;;;;;;0.90;76.60;100926.31;5040092;28;20497;-27
2023/01/07 02:33:39;;;;;;;28.45;12.82;;;;;;;1.10;76.63;100928.00;5068689;28;20453;-27
2023/01/07 02:36:07;;;;;;;25.35;13.13;;;;;;;1.76;75.59;100939.66;5068463;28;20028;-26
2023/01/07 02:39:17;;;;;;;26.83;12.75;;;;;;;1.84;73.21;100934.53;5076110;28;20055;-28
2023/01/07 02:41:45;;;;;;;24.13;12.75;;;;;;;1.45;75.26;100939.81;5013562;28;20031;-28
2023/01/07 02:44:15;;;;;;;;;;;;;;;1.66;75.41;100941.47;5065311;28;20035;-27
2023/01/07 02:47:00;;;;;;;26.25;12.48;;;;;;;1.67;73.98;100909.75;5080751;28;19923;-27
2023/01/07 02:49:25;;;;;;;23.80;12.70;;;;;;;1.71;73.49;100931.34;5082369;28;20029;-26
2023/01/07 02:51:50;;;;;;;28.63;12.85;;;;;;;1.85;73.08;100949.34;5081242;28;20428;-26
2023/01/07 02:54:22;;;;;;;22.25;12.27;;;;;;;1.63;72.55;100925.97;5062358;28;20089;-26
2023/01/07 02:57:15;;;;;;;25.35;12.77;;;;;;;1.87;72.87;100943.94;5080393;28;20027;-27
2023/01/07 02:59:52;;;;;;;25.73;13.00;;;;;;;2.14;71.77;100932.66;5064267;28;20047;-27
2023/01/07 03:02:41;;;;;;;23.10;12.00;;;;;;;1.87;73.03;100941.31;5075885;28;20056;-25
2023/01/07 03:05:25;;;;;;;21.70;11.93;;;;;;;1.48;73.76;100952.66;5084144;28;20523;-27
2023/01/07 03:08:06;;;;;;;23.15;13.20;;;;;;;1.27;75.50;100944.91;5092761;28;20024;-28
2023/01/07 03:10:58;;;;;;;22.45;13.35;;;;;;;1.37;73.87;100939.69;5073532;28;20036;-28
2023/01/07 03:13:32;;;;;;;22.15;12.15;;;;;;;1.57;73.50;100958.88;5091107;28;20124;-28
2023/01/07 03:15:57;;;;;;;22.35;11.63;;;;;;;1.78;72.12;100964.03;5091521;28;20051;-31
2023/01/07 03:18:27;;;;;;;20.77;10.52;;;;;;;1.63;71.30;100934.69;5091857;28;20404;-29
2023/01/07 03:20:58;;;;;;;16.25;9.57;;;;;;;1.44;72.45;100946.03;5091888;28;20036;-29
2023/01/07 03:23:26;;;;;;;21.92;10.55;;;;;;;1.39;72.30;100946.44;5070143;28;20045;-26
2023/01/07 03:25:53;;;;;;;15.68;8.68;;;;;;;1.21;72.59;100929.69;5071813;28;20036;-27
2023/01/07 03:28:26;;;;;;;16.83;9.47;;;;;;;0.60;74.71;100935.91;5071841;28;20044;-26
2023/01/07 03:30:55;;;;;;;24.95;11.15;;;;;;;0.08;76.67;100929.84;5070256;28;20036;-25
2023/01/07 03:33:25;;;;;;;18.90;10.63;;;;;;;0.15;76.76;100947.56;5071773;28;20029;-27
2023/01/07 03:35:54;;;;;;;21.05;10.02;;;;;;;0.64;74.81;100931.22;5069837;28;20036;-26
2023/01/07 03:38:22;;;;;;;18.02;9.38;;;;;;;0.18;75.48;100943.84;5071500;28;20025;-25
2023/01/07 03:40:48;;;;;;;19.95;9.60;;;;;;;0.36;75.87;100939.66;5071446;28;20039;-26
2023/01/07 03:43:17;;;;;;;16.98;8.57;;;;;;;0.61;75.57;100948.06;5071467;28;20033;-25
2023/01/07 03:45:43;;;;;;;15.63;8.00;;;;;;;0.21;76.19;100921.78;5071192;28;20052;-27
2023/01/07 03:48:08;;;;;;;16.33;9.27;;;;;;;0.31;77.12;100946.28;5071081;28;20051;-27
2023/01/07 03:50:34;;;;;;;15.55;8.15;;;;;;;0.29;76.84;100935.09;5071181;28;20033;-26
2023/01/07 03:52:59;;;;;;;13.77;7.57;;;;;;;0.66;76.74;100930.13;5070100;28;20024;-26
2023/01/07 03:55:24;;;;;;;17.55;9.07;;;;;;;0.87;76.38;100944.97;5070931;28;20036;-29
2023/01/07 03:57:50;;;;;;;17.55;8.88;;;;;;;0.79;76.57;100930.69;5071194;28;20504;-27
2023/01/07 04:00:16;;;;;;;79.45;29.17;;;;;;;0.59;75.94;100903.59;5070826;28;20082;-26
2023/01/07 04:02:42;;;;;;;44.83;17.67;;;;;;;0.75;76.52;100918.81;5070827;28;20033;-27
2023/01/07 04:05:08;;;;;;;31.45;14.73;;;;;;;0.48;77.07;100936.97;5070934;28;20059;-26
2023/01/07 04:07:34;;;;;;;41.42;16.20;;;;;;;0.36;77.76;100912.59;5070857;28;20038;-29
2023/01/07 04:10:00;;;;;;;57.33;20.92;;;;;;;0.44;76.56;100906.69;5071170;28;20025;-25
2023/01/07 04:12:25;;;;;;;45.63;18.85;;;;;;;0.29;76.64;100949.03;5070977;28;20020;-26
2023/01/07 04:14:51;;;;;;;32.05;13.25;;;;;;;0.26;78.87;100958.94;5070728;28;20064;-26
2023/01/07 04:17:16;;;;;;;23.65;11.38;;;;;;;0.60;77.60;100957.72;5069330;28;20021;-25
2023/01/07 04:19:41;;;;;;;24.33;11.82;;;;;;;0.69;76.37;100945.59;5069254;28;20043;-27
2023/01/07 04:22:09;;;;;;;29.63;13.25;;;;;;;0.86;76.14;100945.91;5071361;28;20089;-26
2023/01/07 04:24:34;;;;;;;19.95;11.95;;;;;;;0.78;76.93;100954.50;5072504;28;20024;-27
2023/01/07 04:27:00;;;;;;;19.83;11.23;;;;;;;0.84;77.01;100953.09;5072669;28;20070;-29
2023/01/07 04:29:25;;;;;;;16.65;9.52;;;;;;;0.87;75.94;100952.84;5090771;28;20031;-26
2023/01/07 04:31:52;;;;;;;20.08;10.80;;;;;;;0.78;75.63;100960.56;5090067;28;20117;-27
2023/01/07 04:34:17;;;;;;;18.92;10.77;;;;;;;0.73;75.59;100947.00;5072002;28;20032;-27
2023/01/07 04:36:43;;;;;;;16.52;10.20;;;;;;;0.78;75.47;100929.06;5090539;28;20074;-30
2023/01/07 04:39:08;;;;;;;16.60;10.15;;;;;;;0.84;77.34;100960.97;5090457;28;20057;-26
2023/01/07 04:41:33;;;;;;;16.83;9.82;;;;;;;0.99;75.92;100964.91;5072002;28;20016;-26
2023/01/07 04:43:59;;;;;;;16.70;10.20;;;;;;;0.91;76.17;100959.50;5090086;28;20024;-30
2023/01/07 04:46:24;;;;;;;20.15;10.50;;;;;;;0.82;76.24;100950.63;5090304;28;20028;-27
2023/01/07 04:48:50;;;;;;;19.88;10.43;;;;;;;1.08;75.93;100961.47;5071438;28;20476;-27
2023/01/07 04:51:15;;;;;;;19.73;11.68;;;;;;;0.68;76.81;100962.31;5089687;28;20523;-29
2023/01/07 04:53:41;;;;;;;63.05;37.17;;;;;;;0.44;78.15;100974.94;5089668;28;20078;-27
2023/01/07 04:56:07;;;;;;;25.17;13.52;;;;;;;0.42;77.01;100971.59;5089680;28;20085;-28
2023/01/07 04:58:33;;;;;;;24.45;12.43;;;;;;;0.34;76.74;100973.06;5090104;28;20024;-28
2023/01/07 05:01:01;;;;;;;25.10;11.70;;;;;;;0.22;76.34;100949.66;5089964;28;20036;-25
2023/01/07 05:03:27;;;;;;;23.45;12.60;;;;;;;0.27;76.40;100950.94;5089733;28;20031;-27
2023/01/07 05:05:52;;;;;;;23.50;11.68;;;;;;;0.07;76.88;100933.44;5089266;28;20036;-28
2023/01/07 05:08:18;;;;;;;18.02;11.52;;;;;;;0.16;76.54;100970.22;5089735;28;20028;-26
2023/01/07 05:10:43;;;;;;;28.08;15.43;;;;;;;-0.46;79.73;100979.69;5089892;28;20039;-28
2023/01/07 05:13:14;;;;;;;25.13;14.35;;;;;;;-0.61;79.86;100981.78;5089973;28;20067;-25
2023/01/07 05:15:40;;;;;;;28.70;11.90;;;;;;;-0.82;79.84;100973.88;5089506;28;20082;-27
2023/01/07 05:18:06;;;;;;;21.27;11.13;;;;;;;-0.73;79.19;100976.69;5089133;28;20531;-27
2023/01/07 05:20:31;;;;;;;20.90;11.27;;;;;;;-0.63;78.43;100960.09;5089834;28;20035;-26
2023/01/07 05:22:56;;;;;;;24.63;11.57;;;;;;;-0.26;76.93;100964.13;5089267;28;20101;-30
2023/01/07 05:25:22;;;;;;;20.90;11.82;;;;;;;-0.07;77.00;100987.03;5090016;28;20107;-26
2023/01/07 05:27:47;;;;;;;33.00;16.52;;;;;;;-0.17;77.04;100945.00;5088173;28;20055;-28
2023/01/07 05:30:14;;;;;;;34.40;17.80;;;;;;;-0.28;76.49;100960.81;5070921;28;20114;-27
2023/01/07 05:32:39;;;;;;;46.72;22.08;;;;;;;0.12;76.10;100984.56;5089433;28;20044;-27
2023/01/07 05:35:05;;;;;;;37.25;19.80;;;;;;;0.08;75.25;100969.19;5089451;28;20026;-26
2023/01/07 05:37:30;;;;;;;35.47;20.58;;;;;;;-0.04;75.78;100969.28;5089742;28;20036;-27
2023/01/07 05:39:56;;;;;;;37.42;19.15;;;;;;;0.06;74.66;100969.34;5089381;28;20475;-26
2023/01/07 05:42:21;;;;;;;42.95;19.85;;;;;;;0.34;74.21;100993.25;5089152;28;20036;-25
2023/01/07 05:44:46;;;;;;;41.42;22.15;;;;;;;0.55;72.97;101001.06;5089185;28;20023;-29
2023/01/07 05:47:12;;;;;;;40.10;22.85;;;;;;;0.26;74.16;100991.25;5070808;28;20032;-26
2023/01/07 05:49:37;;;;;;;44.10;24.10;;;;;;;0.27;74.46;101003.44;5089310;28;20114;-28
2023/01/07 05:52:03;;;;;;;44.75;20.90;;;;;;;0.19;74.82;100995.38;5070875;28;20039;-27
2023/01/07 05:54:28;;;;;;;40.45;21.52;;;;;;;0.24;74.55;100998.41;5089202;28;20055;-26
2023/01/07 05:56:53;;;;;;;30.48;17.25;;;;;;;0.18;74.91;101005.03;5089270;28;20028;-26
2023/01/07 05:59:19;;;;;;;42.85;16.42;;;;;;;0.23;75.40;100996.78;5088232;28;20024;-28
2023/01/07 06:01:44;;;;;;;35.58;17.10;;;;;;;0.44;73.72;101003.78;5088447;28;20411;-33
2023/01/07 06:04:11;;;;;;;33.47;16.02;;;;;;;0.20;75.04;100991.75;5088785;28;20123;-28
2023/01/07 06:06:36;;;;;;;37.30;16.83;;;;;;;0.31;76.05;101004.81;5070137;28;20036;-29
2023/01/07 06:09:02;;;;;;;33.72;18.30;;;;;;;0.27;76.29;101006.06;5070348;28;20093;-27
2023/01/07 06:11:27;;;;;;;29.63;15.93;;;;;;;0.32;74.68;100990.72;5088827;28;20477;-29
2023/01/07 06:13:53;;;;;;;30.00;15.65;;;;;;;0.17;76.03;101008.59;5088932;28;20082;-25
2023/01/07 06:16:18;;;;;;;32.40;16.55;;;;;;;0.33;76.62;101002.91;5088396;28;20036;-27
2023/01/07 06:18:43;;;;;;;35.90;17.35;;;;;;;-0.19;77.25;100965.28;5073109;28;20035;-28
2023/01/07 06:21:09;;;;;;;28.67;15.82;;;;;;;-0.10;76.83;101011.72;5093612;28;20120;-26
2023/01/07 06:23:35;;;;;;;29.45;14.23;;;;;;;-0.08;76.59;100991.47;5092921;28;20109;-27
2023/01/07 06:26:01;;;;;;;27.45;15.30;;;;;;;-0.60;76.67;101006.19;5074588;28;20039;-25
2023/01/07 06:28:27;;;;;;;28.42;14.95;;;;;;;-0.84;75.54;100973.16;5074852;28;20024;-26
2023/01/07 06:30:52;;;;;;;28.20;15.90;;;;;;;-0.05;74.65;100991.19;5074475;28;20024;-29
2023/01/07 06:33:17;;;;;;;21.98;13.43;;;;;;;0.29;75.77;101012.00;5092903;28;20024;-25
2023/01/07 06:35:45;;;;;;;21.70;12.32;;;;;;;0.30;76.05;100983.97;5092685;28;20110;-27
2023/01/07 06:38:10;;;;;;;18.95;9.93;;;;;;;0.63;76.87;101024.06;5092726;28;20086;-30
2023/01/07 06:40:36;;;;;;;28.42;13.30;;;;;;;0.76;76.71;101033.38;5092586;28;20515;-25
2023/01/07 06:43:01;;;;;;;15.73;9.80;;;;;;;0.93;75.61;101031.09;5074568;28;20077;-26
2023/01/07 06:45:26;;;;;;;102.32;42.03;;;;;;;0.83;76.05;101011.84;5092330;28;20035;-26
2023/01/07 06:47:52;;;;;;;20.55;10.93;;;;;;;1.03;77.50;101037.22;5074538;28;20034;-27
2023/01/07 06:50:18;;;;;;;330.38;156.85;;;;;;;1.05;76.22;101022.16;5074267;28;20118;-26
2023/01/07 06:52:43;;;;;;;27.83;15.68;;;;;;;0.97;74.77;101017.56;5092336;28;20522;-28
2023/01/07 06:55:09;;;;;;;27.70;11.90;;;;;;;1.53;74.29;101021.44;5091572;28;20158;-30
2023/01/07 06:57:35;;;;;;;17.30;11.02;;;;;;;1.78;73.60;101027.16;5062251;28;20028;-29
2023/01/07 07:00:01;;;;;;;31.38;16.75;;;;;;;1.40;74.00;101007.72;5077826;28;20111;-27
2023/01/07 07:02:27;;;;;;;32.38;16.25;;;;;;;0.80;77.23;101028.72;5082182;28;20035;-28
2023/01/07 07:04:53;;;;;;;31.75;16.42;;;;;;;1.04;76.49;101011.78;5080943;28;20036;-26
2023/01/07 07:07:20;;;;;;;34.83;16.65;;;;;;;1.19;76.36;101037.56;5080063;28;20056;-32
2023/01/07 07:09:46;;;;;;;24.90;14.00;;;;;;;1.06;76.80;101039.56;5082562;28;20032;-26
2023/01/07 07:12:11;;;;;;;23.08;11.85;;;;;;;1.37;76.21;101039.53;5091569;28;20557;-28
2023/01/07 07:14:37;;;;;;;23.00;11.85;;;;;;;1.42;75.75;101037.31;5091588;28;20020;-26
2023/01/07 07:17:03;;;;;;;17.45;10.63;;;;;;;1.72;75.08;101028.53;5073737;28;20548;-27
2023/01/07 07:19:28;;;;;;;20.70;12.15;;;;;;;1.76;74.81;101034.34;5091733;28;20082;-26
2023/01/07 07:21:54;;;;;;;19.33;12.85;;;;;;;1.56;76.04;101034.31;5057069;28;20062;-27
2023/01/07 07:24:19;;;;;;;19.00;12.82;;;;;;;1.71;76.47;101023.41;5091607;28;20028;-29
2023/01/07 07:26:45;;;;;;;21.10;13.65;;;;;;;2.13;75.24;101033.66;5091491;28;20032;-26
2023/01/07 07:29:10;;;;;;;19.98;13.07;;;;;;;2.56;73.57;101032.31;5091160;28;20130;-27
2023/01/07 07:31:36;;;;;;;24.65;15.30;;;;;;;2.39;73.72;101016.28;5091636;28;20035;-26
2023/01/07 07:34:02;;;;;;;24.23;14.80;;;;;;;3.03;72.12;101029.66;5080984;28;20098;-26
2023/01/07 07:36:27;;;;;;;32.85;17.27;;;;;;;3.15;72.20;101012.66;5053318;28;20035;-26
2023/01/07 07:38:53;;;;;;;22.42;14.35;;;;;;;3.48;71.78;101038.56;5071659;28;20458;-27
2023/01/07 07:41:19;;;;;;;32.10;17.83;;;;;;;3.33;72.96;101033.78;5074176;28;20035;-27
2023/01/07 07:43:44;;;;;;;28.38;17.08;;;;;;;3.68;72.00;101023.41;5081490;28;20024;-28
2023/01/07 07:46:09;;;;;;;21.08;13.50;;;;;;;3.67;72.65;101037.59;5079323;28;20024;-26
2023/01/07 07:48:35;;;;;;;21.30;12.88;;;;;;;3.98;72.14;101025.69;5080330;28;20023;-27
2023/01/07 07:51:00;;;;;;;20.35;10.18;;;;;;;4.13;69.76;101044.47;5062928;28;20028;-26
2023/01/07 07:53:26;;;;;;;13.07;6.85;;;;;;;4.36;68.60;101049.25;5079687;28;20020;-26
2023/01/07 07:55:52;;;;;;;28.73;10.85;;;;;;;4.61;69.89;101052.88;5070891;28;20041;-26
2023/01/07 07:58:17;;;;;;;25.92;13.68;;;;;;;4.97;68.48;101045.66;5052597;28;20588;-25
2023/01/07 08:00:43;;;;;;;22.55;10.00;;;;;;;4.87;69.07;101044.94;5070902;28;20115;-28
2023/01/07 08:03:09;;;;;;;19.75;10.13;;;;;;;4.45;69.06;101015.78;5070373;28;20032;-28
2023/01/07 08:05:35;;;;;;;23.98;11.32;;;;;;;4.55;69.37;101029.72;5052391;28;20115;-27
2023/01/07 08:08:01;;;;;;;18.10;9.68;;;;;;;4.80;70.17;101031.53;5070274;28;20107;-28
2023/01/07 08:10:27;;;;;;;13.65;8.63;;;;;;;5.11;68.23;101036.31;5071715;28;20032;-31
2023/01/07 08:12:53;;;;;;;14.95;8.38;;;;;;;5.16;68.92;101026.06;5074073;28;20052;-27
2023/01/07 08:15:18;;;;;;;15.45;8.88;;;;;;;5.38;68.06;101023.81;5070607;28;20544;-27
2023/01/07 08:17:44;;;;;;;12.32;8.45;;;;;;;5.56;67.76;101032.47;5070573;28;20040;-29
2023/01/07 08:20:10;;;;;;;14.98;8.07;;;;;;;5.72;66.38;100999.06;5052119;28;20066;-28
2023/01/07 08:22:35;;;;;;;11.43;7.32;;;;;;;5.88;67.29;101025.56;5070196;28;20058;-29
2023/01/07 08:25:01;;;;;;;11.98;7.63;;;;;;;5.76;66.84;101026.88;5070104;28;20028;-27
2023/01/07 08:27:27;;;;;;;13.90;8.43;;;;;;;5.86;66.24;101001.06;5069964;28;20084;-27
2023/01/07 08:29:54;;;;;;;12.18;8.13;;;;;;;5.95;66.46;101026.59;5081679;28;20030;-27
2023/01/07 08:32:19;;;;;;;13.98;8.80;;;;;;;6.29;67.18;101025.56;5088021;28;20031;-30
2023/01/07 08:34:45;;;;;;;15.02;9.10;;;;;;;6.10;66.62;101023.28;5071718;28;20035;-26
2023/01/07 08:37:10;;;;;;;18.73;9.52;;;;;;;6.22;67.17;101014.00;5086554;28;20058;-28
2023/01/07 08:39:36;;;;;;;16.23;9.40;;;;;;;6.36;67.00;101033.72;5069900;28;20449;-26
2023/01/07 08:42:01;;;;;;;12.98;7.63;;;;;;;6.70;66.85;101040.59;5068608;28;20037;-27
2023/01/07 08:44:27;;;;;;;12.15;7.47;;;;;;;6.52;66.05;101011.63;5052011;28;20032;-27
2023/01/07 08:46:53;;;;;;;13.75;7.60;;;;;;;6.70;65.55;101024.69;5069943;28;20111;-26
2023/01/07 08:49:19;;;;;;;16.80;7.93;;;;;;;7.06;65.04;101025.06;5069987;28;20033;-27
2023/01/07 08:51:44;;;;;;;15.20;8.68;;;;;;;7.18;65.17;101023.69;5069914;28;20116;-27
2023/01/07 08:54:09;;;;;;;23.52;14.32;;;;;;;7.30;64.49;101026.78;5069679;28;20047;-26
2023/01/07 08:56:35;;;;;;;13.75;7.88;;;;;;;7.38;64.11;101018.78;5069402;28;20028;-26
2023/01/07 08:59:00;;;;;;;11.85;7.78;;;;;;;7.56;62.37;100989.31;5069855;28;20028;-29
2023/01/07 09:01:26;;;;;;;11.50;6.65;;;;;;;7.93;62.46;101000.16;5069660;28;20032;-29
2023/01/07 09:03:51;;;;;;;13.48;7.00;;;;;;;8.22;60.56;100972.84;5068956;28;20024;-28
2023/01/07 09:06:16;;;;;;;11.57;6.07;;;;;;;8.58;60.37;100996.06;5050926;28;20040;-29
2023/01/07 09:08:42;;;;;;;10.43;5.90;;;;;;;8.73;58.51;100996.09;5068852;28;20036;-27
2023/01/07 09:11:07;;;;;;;11.13;6.10;;;;;;;9.13;57.71;100997.41;5069556;28;20031;-29
2023/01/07 09:13:33;;;;;;;9.13;5.30;;;;;;;9.28;58.24;100986.75;5069741;28;20025;-27
2023/01/07 09:15:59;;;;;;;20.08;16.15;;;;;;;9.28;57.68;100972.63;5069297;28;20443;-28
2023/01/07 09:18:24;;;;;;;17.88;11.98;;;;;;;9.59;56.39;100980.31;5069351;28;20024;-27
2023/01/07 09:20:50;;;;;;;9.15;5.32;;;;;;;9.35;55.79;100984.16;5051154;28;20039;-27
2023/01/07 09:23:15;;;;;;;12.75;7.63;;;;;;;9.50;55.71;100981.44;5069496;28;20076;-31
2023/01/07 09:25:41;;;;;;;9.48;7.05;;;;;;;9.63;56.48;100982.41;5068728;28;20028;-26
2023/01/07 09:28:06;;;;;;;17.15;12.70;;;;;;;9.59;55.70;100975.00;5069000;28;20492;-28
2023/01/07 09:30:32;;;;;;;8.40;5.28;;;;;;;9.90;54.53;100971.19;5069159;28;20051;-27
2023/01/07 09:32:58;;;;;;;10.80;5.60;;;;;;;10.05;54.21;100970.09;5069284;28;20036;-26
2023/01/07 09:35:23;;;;;;;9.32;5.00;;;;;;;10.32;53.68;100970.31;5068984;28;20020;-27
2023/01/07 09:37:48;;;;;;;8.75;4.90;;;;;;;10.29;52.89;100965.31;5050694;28;20127;-29
2023/01/07 09:40:34;;;;;;;9.88;5.07;;;;;;;10.24;53.42;100965.09;5068677;28;20028;-27
2023/01/07 09:43:00;;;;;;;10.25;5.03;;;;;;;10.19;54.08;100949.66;5069072;28;20063;-27
2023/01/07 09:45:53;;;;;;;9.77;5.43;;;;;;;10.46;54.77;100960.53;5069162;28;20052;-28
2023/01/07 09:48:29;;;;;;;10.82;6.03;;;;;;;10.52;53.32;100948.25;5066299;28;20041;-26
2023/01/07 09:51:09;;;;;;;9.18;5.50;;;;;;;10.65;53.47;100943.00;5068719;28;20029;-28
2023/01/07 09:53:39;;;;;;;12.55;7.47;;;;;;;10.71;52.98;100915.53;5068844;28;20028;-27
2023/01/07 09:56:10;;;;;;;10.95;6.82;;;;;;;10.96;52.29;100915.00;5068187;28;20028;-28
2023/01/07 09:58:37;;;;;;;12.68;7.10;;;;;;;11.35;51.35;100921.47;5069054;28;20492;-27
2023/01/07 10:01:20;;;;;;;8.88;5.25;;;;;;;11.32;51.56;100908.50;5068625;28;20024;-31
2023/01/07 10:03:45;;;;;;;9.57;5.35;;;;;;;11.42;52.02;100916.94;5050346;28;20036;-30
2023/01/07 10:06:29;;;;;;;10.07;6.28;;;;;;;11.75;50.47;100911.66;5068082;28;20416;-28
2023/01/07 10:09:22;;;;;;;11.00;5.82;;;;;;;12.02;50.68;100909.78;5068206;28;20033;-29
2023/01/07 10:12:15;;;;;;;9.43;5.40;;;;;;;12.18;49.50;100889.00;5068757;28;20029;-27
2023/01/07 10:15:02;;;;;;;9.90;5.28;;;;;;;12.18;50.03;100891.69;5050614;28;20463;-26
2023/01/07 10:17:35;;;;;;;10.02;6.45;;;;;;;11.97;50.62;100898.91;5050806;28;20642;-27
2023/01/07 10:20:19;;;;;;;12.73;6.00;;;;;;;12.34;50.24;100891.22;5050453;28;20028;-28
2023/01/07 10:22:49;;;;;;;10.30;5.40;;;;;;;12.57;48.49;100887.25;5068596;28;20055;-30
2023/01/07 10:25:21;;;;;;;11.15;6.35;;;;;;;12.51;48.90;100861.34;5068754;28;20036;-30
2023/01/07 10:27:48;;;;;;;9.85;5.18;;;;;;;12.38;49.48;100879.09;5050426;28;20067;-27
2023/01/07 10:30:28;;;;;;;10.00;5.40;;;;;;;12.60;49.56;100865.41;5068298;28;20458;-27
2023/01/07 10:33:17;;;;;;;10.23;4.95;;;;;;;12.86;48.60;100878.66;5068619;28;20047;-29
2023/01/07 10:35:45;;;;;;;9.18;5.22;;;;;;;12.79;47.91;100843.09;5058603;28;20098;-27
2023/01/07 10:38:17;;;;;;;14.68;6.97;;;;;;;12.97;47.61;100849.56;5050265;28;20091;-29
2023/01/07 10:40:53;;;;;;;10.02;4.85;;;;;;;13.27;46.73;100849.78;5068484;28;20052;-27
2023/01/07 10:43:34;;;;;;;9.32;5.03;;;;;;;13.58;46.77;100862.34;5068512;28;20025;-27
2023/01/07 10:46:20;;;;;;;7.97;4.32;;;;;;;13.99;45.25;100863.59;5049994;28;20035;-28
2023/01/07 10:49:03;;;;;;;9.18;4.70;;;;;;;13.64;45.54;100845.38;5068315;28;20119;-27
2023/01/07 10:51:37;;;;;;;9.68;5.00;;;;;;;13.98;44.60;100831.66;5068358;28;20156;-27
2023/01/07 10:54:42;;;;;;;14.30;4.78;;;;;;;14.56;43.39;100833.88;5067969;28;20038;-30
2023/01/07 10:57:16;;;;;;;8.27;4.10;;;;;;;14.38;43.30;100818.59;5059123;28;20538;-27
2023/01/07 10:59:56;;;;;;;10.32;4.30;;;;;;;14.40;43.56;100815.69;5068208;28;20043;-29
2023/01/07 11:02:26;;;;;;;10.10;4.18;;;;;;;14.92;43.09;100812.56;5050020;28;20031;-30
2023/01/07 11:04:53;;;;;;;9.23;4.00;;;;;;;15.40;41.13;100809.72;5051985;28;20020;-28
2023/01/07 11:07:42;;;;;;;9.20;4.13;;;;;;;15.60;42.16;100814.75;5053864;28;20526;-28
2023/01/07 11:10:22;;;;;;;7.85;3.67;;;;;;;15.05;42.38;100801.59;5071014;28;20028;-29
2023/01/07 11:13:11;;;;;;;7.50;3.60;;;;;;;15.59;42.10;100809.59;5071631;28;20031;-30
2023/01/07 11:15:43;;;;;;;8.95;3.97;;;;;;;15.15;41.15;100785.75;5053371;28;20078;-28
2023/01/07 11:18:19;;;;;;;7.30;3.50;;;;;;;15.57;40.74;100793.72;5071256;28;20446;-28
2023/01/07 11:20:54;;;;;;;7.90;3.47;;;;;;;15.91;40.17;100804.69;5072247;28;20124;-27
2023/01/07 11:23:35;;;;;;;11.90;4.20;;;;;;;15.58;40.74;100800.72;5071444;28;20056;-27
2023/01/07 11:26:08;;;;;;;8.25;3.97;;;;;;;15.50;40.80;100779.56;5071370;28;20029;-27
2023/01/07 11:28:35;;;;;;;7.97;4.30;;;;;;;16.50;39.66;100790.28;5053224;28;20028;-27